Time;durP1;ratioP1;P1;durP2;ratioP2;P2;SDS_P1;SDS_P2;PMS_P1;PMS_P2;Temp;Humidity;BMP_temperature;BMP_pressure;BME280_temperature;BME280_humidity;BME280_pressure;Samples;Min_cycle;Max_cycle;Signal;HPM_P1;HPM_P2
2021/01/03 00:00:33;;;;;;;42.65;18.52;;;4.10;93.10;;;;;;2088795;28;20095;-82
2021/01/03 00:01:34;;;;;;;40.90;18.35;;;4.00;93.10;;;;;;2089461;28;20541;-82
2021/01/03 00:02:34;;;;;;;39.08;17.90;;;4.10;93.10;;;;;;2089458;28;20546;-81
2021/01/03 00:03:36;;;;;;;45.22;18.70;;;4.00;93.10;;;;;;2089296;28;20064;-81
2021/01/03 00:04:39;;;;;;;39.85;17.17;;;4.00;93.10;;;;;;2105562;28;20031;-81
2021/01/03 00:05:40;;;;;;;40.10;18.33;;;4.00;93.10;;;;;;2096867;28;20032;-81
2021/01/03 00:06:41;;;;;;;45.50;18.73;;;4.00;93.10;;;;;;2088874;28;20021;-81
2021/01/03 00:07:42;;;;;;;38.65;17.15;;;4.00;93.10;;;;;;2080697;28;20030;-81
2021/01/03 00:08:43;;;;;;;43.50;18.10;;;4.00;93.10;;;;;;2080380;28;20368;-81
2021/01/03 00:09:44;;;;;;;41.78;18.23;;;4.00;93.10;;;;;;2080407;28;20025;-82
2021/01/03 00:10:44;;;;;;;38.30;17.15;;;4.00;93.10;;;;;;2089045;28;20449;-82
2021/01/03 00:11:45;;;;;;;51.10;20.10;;;4.00;93.10;;;;;;2105515;28;20109;-81
2021/01/03 00:12:46;;;;;;;35.38;17.40;;;4.00;93.10;;;;;;2105441;28;20078;-81
2021/01/03 00:13:47;;;;;;;42.78;18.40;;;4.00;93.10;;;;;;2096909;28;20483;-81
2021/01/03 00:14:47;;;;;;;43.25;18.58;;;4.00;93.10;;;;;;2088644;28;20040;-81
2021/01/03 00:15:48;;;;;;;37.85;17.75;;;4.00;93.10;;;;;;2088875;28;20057;-81
2021/01/03 00:16:53;;;;;;;42.63;18.60;;;4.00;93.10;;;;;;2088758;28;20384;-81
2021/01/03 00:17:53;;;;;;;39.05;16.83;;;4.00;93.10;;;;;;2088858;28;20086;-81
2021/01/03 00:18:54;;;;;;;43.25;18.42;;;4.00;93.10;;;;;;2096877;28;20036;-81
2021/01/03 00:19:55;;;;;;;41.17;16.88;;;4.00;93.10;;;;;;2088856;28;20033;-81
2021/01/03 00:20:55;;;;;;;37.47;17.52;;;4.00;93.10;;;;;;2080633;28;20132;-81
2021/01/03 00:21:56;;;;;;;41.78;18.77;;;4.00;93.10;;;;;;2096870;28;20059;-82
2021/01/03 00:22:57;;;;;;;40.30;17.40;;;4.00;93.10;;;;;;2105212;28;20032;-81
2021/01/03 00:23:58;;;;;;;40.15;17.35;;;4.00;93.10;;;;;;2089326;28;20060;-82
2021/01/03 00:24:59;;;;;;;37.65;17.02;;;4.00;93.10;;;;;;2105486;28;20506;-81
2021/01/03 00:25:59;;;;;;;45.25;19.05;;;4.00;93.10;;;;;;2096805;28;20064;-81
2021/01/03 00:27:00;;;;;;;38.80;17.83;;;4.00;93.10;;;;;;2088754;28;20036;-81
2021/01/03 00:28:00;;;;;;;46.90;19.83;;;4.00;93.10;;;;;;2088877;28;20032;-81
2021/01/03 00:29:01;;;;;;;39.92;18.00;;;4.00;93.10;;;;;;2088717;28;20032;-81
2021/01/03 00:30:06;;;;;;;40.65;18.60;;;4.00;93.10;;;;;;2096946;28;20036;-81
2021/01/03 00:31:07;;;;;;;36.78;17.15;;;4.00;93.10;;;;;;2088811;28;20471;-81
2021/01/03 00:32:08;;;;;;;35.72;17.05;;;4.00;93.10;;;;;;2073342;28;20033;-81
2021/01/03 00:33:08;;;;;;;40.53;16.35;;;3.90;93.10;;;;;;2082200;28;20033;-81
2021/01/03 00:34:10;;;;;;;34.50;16.20;;;3.90;93.10;;;;;;2107196;28;20028;-81
2021/01/03 00:35:16;;;;;;;36.33;16.67;;;3.90;93.10;;;;;;2106869;28;20032;-81
2021/01/03 00:36:18;;;;;;;36.15;16.33;;;4.00;93.10;;;;;;2091158;28;20028;-81
2021/01/03 00:37:21;;;;;;;31.42;15.20;;;4.00;93.10;;;;;;2090275;28;20090;-81
2021/01/03 00:38:23;;;;;;;36.53;15.75;;;4.00;93.10;;;;;;2082594;28;20026;-81
2021/01/03 00:39:23;;;;;;;34.70;15.48;;;4.00;93.10;;;;;;2090416;28;20028;-81
2021/01/03 00:40:25;;;;;;;33.95;15.52;;;4.00;93.10;;;;;;2106737;28;20047;-81
2021/01/03 00:41:25;;;;;;;41.35;16.98;;;4.00;93.10;;;;;;2098533;28;20150;-81
2021/01/03 00:42:26;;;;;;;38.80;16.73;;;4.00;93.10;;;;;;2082147;28;20033;-81
2021/01/03 00:43:27;;;;;;;42.30;18.23;;;4.00;93.10;;;;;;2090409;28;20021;-81
2021/01/03 00:44:27;;;;;;;40.10;17.55;;;4.00;93.10;;;;;;2090306;28;20025;-82
2021/01/03 00:45:28;;;;;;;41.05;17.75;;;4.00;93.10;;;;;;2090355;28;20487;-81
2021/01/03 00:46:29;;;;;;;44.13;18.70;;;3.90;93.10;;;;;;2098600;28;20066;-82
2021/01/03 00:47:29;;;;;;;39.55;17.90;;;3.90;93.10;;;;;;2073776;28;20056;-81
2021/01/03 00:48:31;;;;;;;41.10;17.92;;;3.90;93.10;;;;;;2073729;28;20030;-81
2021/01/03 00:49:31;;;;;;;46.83;19.30;;;3.90;93.10;;;;;;2090187;28;20087;-81
2021/01/03 00:50:32;;;;;;;41.97;18.08;;;3.90;93.10;;;;;;2106998;28;20040;-81
2021/01/03 00:51:33;;;;;;;36.55;17.30;;;3.90;93.10;;;;;;2098649;28;20123;-81
2021/01/03 00:52:34;;;;;;;37.97;17.23;;;3.90;93.10;;;;;;2090289;28;20433;-81
2021/01/03 00:53:35;;;;;;;43.40;18.25;;;3.90;93.10;;;;;;2090258;28;20033;-81
2021/01/03 00:54:35;;;;;;;40.53;17.85;;;3.90;93.20;;;;;;2082013;28;20021;-82
2021/01/03 00:55:36;;;;;;;39.90;17.40;;;3.90;93.10;;;;;;2082098;28;20030;-81
2021/01/03 00:56:39;;;;;;;40.72;17.05;;;3.90;93.10;;;;;;2090242;28;20491;-81
2021/01/03 00:57:40;;;;;;;36.83;16.90;;;3.90;93.20;;;;;;2081989;28;20396;-81
2021/01/03 00:58:41;;;;;;;45.95;19.23;;;3.90;93.10;;;;;;2081964;28;20018;-79
2021/01/03 00:59:41;;;;;;;47.65;19.77;;;3.90;93.10;;;;;;2089902;28;20399;-81
2021/01/03 01:00:42;;;;;;;49.28;19.88;;;3.80;93.10;;;;;;2089989;28;20534;-81
2021/01/03 01:01:42;;;;;;;39.17;17.98;;;3.80;93.10;;;;;;2090299;28;20396;-81
2021/01/03 01:02:43;;;;;;;44.65;18.67;;;3.80;93.10;;;;;;2106695;28;20436;-81
2021/01/03 01:03:44;;;;;;;46.55;19.40;;;3.80;93.10;;;;;;2106758;28;20032;-81
2021/01/03 01:04:45;;;;;;;41.28;18.45;;;3.80;93.10;;;;;;2090679;28;20037;-81
2021/01/03 01:05:45;;;;;;;43.38;19.33;;;3.80;93.20;;;;;;2106999;28;20098;-81
2021/01/03 01:06:46;;;;;;;40.42;18.05;;;3.80;93.10;;;;;;2106885;28;20478;-82
2021/01/03 01:07:47;;;;;;;37.22;16.95;;;3.80;93.10;;;;;;2090861;28;20116;-81
2021/01/03 01:08:47;;;;;;;36.58;16.95;;;3.80;93.10;;;;;;2090043;28;20025;-81
2021/01/03 01:09:48;;;;;;;34.83;15.88;;;3.80;93.10;;;;;;2090085;28;20025;-81
2021/01/03 01:10:49;;;;;;;39.88;17.52;;;3.80;93.20;;;;;;2090653;28;20122;-81
2021/01/03 01:11:53;;;;;;;37.05;16.50;;;3.80;93.10;;;;;;2106880;28;20024;-81
2021/01/03 01:12:57;;;;;;;36.13;15.30;;;3.80;93.10;;;;;;2105441;28;20512;-81
2021/01/03 01:13:58;;;;;;;36.05;15.55;;;3.90;93.20;;;;;;2090153;28;20068;-81
2021/01/03 01:14:58;;;;;;;37.17;16.73;;;3.90;93.10;;;;;;2090087;28;20039;-81
2021/01/03 01:16:00;;;;;;;34.58;15.60;;;3.90;93.10;;;;;;2089988;28;20025;-81
2021/01/03 01:17:01;;;;;;;34.97;16.23;;;3.80;93.10;;;;;;2073827;28;20034;-81
2021/01/03 01:18:03;;;;;;;35.15;15.18;;;3.80;93.30;;;;;;2073815;28;20498;-81
2021/01/03 01:19:05;;;;;;;32.72;16.05;;;3.80;93.10;;;;;;2090309;28;20112;-82
2021/01/03 01:20:08;;;;;;;33.65;15.20;;;3.90;93.10;;;;;;2089704;28;20041;-81
2021/01/03 01:21:08;;;;;;;31.77;14.85;;;3.80;93.00;;;;;;2082163;28;20064;-81
2021/01/03 01:22:09;;;;;;;31.20;14.50;;;3.90;93.40;;;;;;2091689;28;20044;-81
2021/01/03 01:23:09;;;;;;;38.63;16.63;;;3.90;93.10;;;;;;2090139;28;20227;-81
2021/01/03 01:24:10;;;;;;;37.35;15.73;;;3.90;93.10;;;;;;2081778;28;20064;-81
2021/01/03 01:25:13;;;;;;;38.25;17.30;;;3.90;93.00;;;;;;2081610;28;20041;-81
2021/01/03 01:26:14;;;;;;;36.75;15.75;;;3.80;93.00;;;;;;2081905;28;20026;-81
2021/01/03 01:27:14;;;;;;;33.35;16.20;;;3.90;93.00;;;;;;2082007;28;20483;-81
2021/01/03 01:28:15;;;;;;;44.25;18.27;;;3.80;93.00;;;;;;2098220;28;20025;-81
2021/01/03 01:29:15;;;;;;;38.08;17.02;;;3.80;93.00;;;;;;2081702;28;20116;-81
2021/01/03 01:30:17;;;;;;;39.03;16.40;;;3.80;93.00;;;;;;2065488;28;20030;-81
2021/01/03 01:31:18;;;;;;;35.58;15.70;;;3.80;93.00;;;;;;2081781;28;20025;-81
2021/01/03 01:32:18;;;;;;;41.60;17.13;;;3.80;93.00;;;;;;2090061;28;20119;-81
2021/01/03 01:33:19;;;;;;;39.08;17.85;;;3.80;93.10;;;;;;2081746;28;20052;-81
2021/01/03 01:34:20;;;;;;;37.50;16.70;;;3.80;93.00;;;;;;2081663;28;20037;-81
2021/01/03 01:35:25;;;;;;;37.03;16.35;;;3.80;93.00;;;;;;2089932;28;20021;-81
2021/01/03 01:36:26;;;;;;;32.30;15.38;;;3.80;93.00;;;;;;2089504;28;20021;-81
2021/01/03 01:37:27;;;;;;;31.58;15.70;;;3.80;93.00;;;;;;2081772;28;20507;-81
2021/01/03 01:38:27;;;;;;;30.15;14.43;;;3.80;93.00;;;;;;2089972;28;20028;-82
2021/01/03 01:39:28;;;;;;;30.63;14.05;;;3.80;93.30;;;;;;2089687;28;20033;-81
2021/01/03 01:40:35;;;;;;;30.27;14.27;;;3.80;93.00;;;;;;2081537;28;20132;-81
2021/01/03 01:41:36;;;;;;;30.85;13.98;;;3.80;93.00;;;;;;2089105;28;20021;-82
2021/01/03 01:42:36;;;;;;;28.10;13.77;;;3.80;93.10;;;;;;2097928;28;20082;-81
2021/01/03 01:43:37;;;;;;;31.25;14.68;;;3.80;93.00;;;;;;2098214;28;20031;-82
2021/01/03 01:44:37;;;;;;;31.85;14.80;;;3.80;93.00;;;;;;2089862;28;20041;-81
2021/01/03 01:45:40;;;;;;;32.45;15.52;;;3.80;93.00;;;;;;2098255;28;20028;-81
2021/01/03 01:47:19;;;;;;;35.58;16.02;;;3.80;93.00;;;;;;2089658;28;20083;-82
2021/01/03 01:48:25;;;;;;;33.38;14.20;;;3.80;92.90;;;;;;2082123;28;20025;-81
2021/01/03 01:49:26;;;;;;;36.53;16.25;;;3.80;92.90;;;;;;2082217;28;20079;-81
2021/01/03 01:50:43;;;;;;;36.67;15.95;;;3.80;92.90;;;;;;2098206;28;20559;-81
2021/01/03 01:51:49;;;;;;;33.65;15.50;;;3.80;92.90;;;;;;2095971;28;20021;-82
2021/01/03 01:52:55;;;;;;;32.22;15.30;;;3.70;92.90;;;;;;2081631;28;20116;-81
2021/01/03 01:54:08;;;;;;;36.13;15.77;;;3.70;92.90;;;;;;2081554;28;20025;-82
2021/01/03 01:55:16;;;;;;;33.95;16.52;;;3.80;93.00;;;;;;2082242;28;20040;-81
2021/01/03 01:56:32;;;;;;;32.97;15.63;;;3.70;92.90;;;;;;2082271;28;20065;-81
2021/01/03 01:57:40;;;;;;;35.22;16.05;;;3.70;92.90;;;;;;2082137;28;20506;-82
2021/01/03 01:58:57;;;;;;;31.27;14.65;;;3.70;92.90;;;;;;2098153;28;20024;-82
2021/01/03 02:00:23;;;;;;;32.65;14.32;;;3.70;92.90;;;;;;2094011;28;20162;-81
2021/01/03 02:01:35;;;;;;;36.17;14.98;;;3.70;92.90;;;;;;2082146;28;20025;-81
2021/01/03 02:02:43;;;;;;;40.28;17.15;;;3.70;92.90;;;;;;2081945;28;20053;-81
2021/01/03 02:04:08;;;;;;;33.17;16.38;;;3.70;92.90;;;;;;2098157;28;20025;-82
2021/01/03 02:05:19;;;;;;;37.08;15.77;;;3.80;92.90;;;;;;2091608;28;20029;-81
2021/01/03 02:06:36;;;;;;;36.60;16.65;;;3.70;92.90;;;;;;2082311;28;20022;-81
2021/01/03 02:07:46;;;;;;;33.72;14.70;;;3.70;92.80;;;;;;2082127;28;20083;-81
2021/01/03 02:08:53;;;;;;;32.72;15.38;;;3.70;92.80;;;;;;2082102;28;20021;-81
2021/01/03 02:10:47;;;;;;;30.92;14.55;;;3.70;92.80;;;;;;2097888;28;20032;-82
2021/01/03 02:11:48;;;;;;;30.23;14.27;;;3.70;92.80;;;;;;2073951;28;20046;-81
2021/01/03 02:13:02;;;;;;;33.10;14.77;;;3.70;92.80;;;;;;2072962;28;20053;-81
2021/01/03 02:14:09;;;;;;;29.35;13.70;;;3.70;92.80;;;;;;2075838;28;20033;-81
2021/01/03 02:15:15;;;;;;;29.15;13.18;;;3.70;92.80;;;;;;2081847;28;20026;-82
2021/01/03 02:16:20;;;;;;;31.92;14.60;;;3.80;92.80;;;;;;2097779;28;20020;-82
2021/01/03 02:17:21;;;;;;;35.30;14.38;;;3.70;92.80;;;;;;2097090;28;20032;-81
2021/01/03 02:18:22;;;;;;;29.92;14.05;;;3.70;92.80;;;;;;2082369;28;20021;-82
2021/01/03 02:19:24;;;;;;;30.40;13.93;;;3.80;92.80;;;;;;2081962;28;20033;-82
2021/01/03 02:20:32;;;;;;;29.65;14.32;;;3.80;92.80;;;;;;2097634;28;20033;-81
2021/01/03 02:22:17;;;;;;;30.20;13.93;;;3.80;92.80;;;;;;2095842;28;20031;-83
2021/01/03 02:23:30;;;;;;;27.70;12.82;;;3.80;92.80;;;;;;2072848;28;20018;-82
2021/01/03 02:24:45;;;;;;;28.85;13.20;;;3.80;92.80;;;;;;2081158;28;20036;-81
2021/01/03 02:25:46;;;;;;;30.98;13.07;;;3.80;92.80;;;;;;2088924;28;20051;-81
2021/01/03 02:27:02;;;;;;;31.17;14.57;;;3.80;92.80;;;;;;2081370;28;20026;-81
2021/01/03 02:28:17;;;;;;;29.27;13.38;;;3.80;92.80;;;;;;2081743;28;20053;-82
2021/01/03 02:29:20;;;;;;;30.05;13.85;;;3.80;92.80;;;;;;2081986;28;20032;-82
2021/01/03 02:30:23;;;;;;;30.73;14.20;;;3.80;92.80;;;;;;2082145;28;20026;-81
2021/01/03 02:31:29;;;;;;;31.30;14.70;;;3.80;92.80;;;;;;2097828;28;20108;-82
2021/01/03 02:32:30;;;;;;;33.70;14.43;;;3.80;92.80;;;;;;2097084;28;20021;-81
2021/01/03 02:33:41;;;;;;;29.02;13.73;;;3.80;92.80;;;;;;2089546;28;20090;-82
2021/01/03 02:34:47;;;;;;;29.40;14.15;;;3.80;92.80;;;;;;2081823;28;20408;-82
2021/01/03 02:35:50;;;;;;;27.83;13.25;;;3.80;92.80;;;;;;2081205;28;20021;-81
2021/01/03 02:36:57;;;;;;;32.83;13.98;;;3.80;92.80;;;;;;2081514;28;20045;-81
2021/01/03 02:37:58;;;;;;;30.17;14.07;;;3.80;92.80;;;;;;2081922;28;20029;-81
2021/01/03 02:39:16;;;;;;;31.85;14.50;;;3.80;92.80;;;;;;2081669;28;20029;-82
2021/01/03 02:40:22;;;;;;;31.13;13.93;;;3.80;92.80;;;;;;2087591;28;20077;-81
2021/01/03 02:41:22;;;;;;;28.88;12.85;;;3.80;92.80;;;;;;2085247;28;20029;-81
2021/01/03 02:42:28;;;;;;;30.90;13.25;;;3.80;92.80;;;;;;2081888;28;20021;-81
2021/01/03 02:43:29;;;;;;;29.65;13.60;;;3.80;92.80;;;;;;2090039;28;20021;-81
2021/01/03 02:44:29;;;;;;;34.08;14.15;;;3.80;92.80;;;;;;2091761;28;20033;-81
2021/01/03 02:45:31;;;;;;;27.88;13.52;;;3.80;92.80;;;;;;2090006;28;20029;-81
2021/01/03 02:46:34;;;;;;;30.55;13.38;;;3.80;92.80;;;;;;2098593;28;20041;-80
2021/01/03 02:47:37;;;;;;;26.65;12.25;;;3.90;92.80;;;;;;2089399;28;20097;-81
2021/01/03 02:48:37;;;;;;;27.52;13.07;;;3.80;92.80;;;;;;2090425;28;20036;-81
2021/01/03 02:49:38;;;;;;;27.50;12.80;;;3.90;92.80;;;;;;2098465;28;20186;-81
2021/01/03 02:50:39;;;;;;;26.75;11.88;;;3.90;92.80;;;;;;2095369;28;20263;-82
2021/01/03 02:51:43;;;;;;;27.63;12.88;;;3.90;92.80;;;;;;2083247;28;20364;-81
2021/01/03 02:52:44;;;;;;;27.42;13.00;;;3.80;92.80;;;;;;2089656;28;20032;-81
2021/01/03 02:53:45;;;;;;;28.85;14.00;;;3.90;92.80;;;;;;2086608;28;20053;-82
2021/01/03 02:54:46;;;;;;;30.27;12.93;;;3.90;92.80;;;;;;2087383;28;20030;-80
2021/01/03 02:55:46;;;;;;;32.38;14.38;;;3.90;92.80;;;;;;2104211;28;20029;-81
2021/01/03 02:56:49;;;;;;;32.55;14.65;;;3.90;92.80;;;;;;2090564;28;20013;-82
2021/01/03 02:57:49;;;;;;;37.97;16.67;;;3.90;92.80;;;;;;2078981;28;20083;-81
2021/01/03 02:58:50;;;;;;;38.25;16.90;;;3.80;92.80;;;;;;2090307;28;20028;-81
2021/01/03 02:59:51;;;;;;;35.75;15.70;;;3.90;92.80;;;;;;2081445;28;20033;-82
2021/01/03 03:00:51;;;;;;;33.25;15.30;;;3.80;92.80;;;;;;2065094;28;20034;-81
2021/01/03 03:01:52;;;;;;;29.58;14.48;;;3.80;92.80;;;;;;2081181;28;20056;-81
2021/01/03 03:02:53;;;;;;;34.13;14.85;;;3.80;92.80;;;;;;2081193;28;20095;-81
2021/01/03 03:03:54;;;;;;;37.17;16.30;;;3.80;92.80;;;;;;2081106;28;20416;-81
2021/01/03 03:04:55;;;;;;;32.33;14.82;;;3.80;92.80;;;;;;2081673;28;20115;-81
2021/01/03 03:05:55;;;;;;;33.03;15.40;;;3.80;92.80;;;;;;2081960;28;20493;-82
2021/01/03 03:06:56;;;;;;;31.98;14.93;;;3.80;92.80;;;;;;2097794;28;20389;-82
2021/01/03 03:07:57;;;;;;;32.58;14.48;;;3.80;93.10;;;;;;2089670;28;20403;-81
2021/01/03 03:08:57;;;;;;;31.30;14.77;;;3.80;92.80;;;;;;2081151;28;20504;-82
2021/01/03 03:09:58;;;;;;;34.58;14.73;;;3.80;92.90;;;;;;2081290;28;20064;-81
2021/01/03 03:10:58;;;;;;;34.20;15.70;;;3.80;92.90;;;;;;2089413;28;20593;-81
2021/01/03 03:11:59;;;;;;;32.47;15.10;;;3.80;92.80;;;;;;2081253;28;20028;-82
2021/01/03 03:13:02;;;;;;;30.45;13.88;;;3.80;92.80;;;;;;2081375;28;20116;-82
2021/01/03 03:14:03;;;;;;;31.77;14.35;;;3.80;92.90;;;;;;2081041;28;20017;-81
2021/01/03 03:15:07;;;;;;;27.80;14.02;;;3.80;92.90;;;;;;2081023;28;20167;-81
2021/01/03 03:16:07;;;;;;;27.90;12.93;;;3.80;92.90;;;;;;2090750;28;20021;-81
2021/01/03 03:17:09;;;;;;;29.15;13.30;;;3.90;92.90;;;;;;2106241;28;20037;-80
2021/01/03 03:18:09;;;;;;;35.05;16.00;;;3.80;92.90;;;;;;2105662;28;20029;-81
2021/01/03 03:19:11;;;;;;;32.83;13.57;;;3.90;92.90;;;;;;2103691;28;20067;-82
2021/01/03 03:20:13;;;;;;;31.73;14.88;;;3.80;92.80;;;;;;2079123;28;20072;-81
2021/01/03 03:21:18;;;;;;;35.60;15.15;;;3.80;92.80;;;;;;2072083;28;20027;-81
2021/01/03 03:22:18;;;;;;;34.10;15.38;;;3.80;92.80;;;;;;2081784;28;20073;-81
2021/01/03 03:23:19;;;;;;;31.88;14.68;;;3.80;92.80;;;;;;2097467;28;20028;-81
2021/01/03 03:24:21;;;;;;;35.72;16.50;;;3.90;92.80;;;;;;2089503;28;20025;-81
2021/01/03 03:25:22;;;;;;;36.28;15.45;;;3.80;92.80;;;;;;2081114;28;20124;-81
2021/01/03 03:26:23;;;;;;;30.38;14.48;;;3.80;92.80;;;;;;2081021;28;20029;-81
2021/01/03 03:27:23;;;;;;;32.63;14.50;;;3.80;92.90;;;;;;2081002;28;20381;-81
2021/01/03 03:28:24;;;;;;;32.97;14.50;;;3.80;92.90;;;;;;2081691;28;20487;-82
2021/01/03 03:29:27;;;;;;;31.00;13.70;;;3.80;92.90;;;;;;2097582;28;20028;-81
2021/01/03 03:30:27;;;;;;;29.95;14.65;;;3.80;92.90;;;;;;2097072;28;20059;-81
2021/01/03 03:31:29;;;;;;;33.42;14.48;;;3.80;92.90;;;;;;2080897;28;20558;-80
2021/01/03 03:32:29;;;;;;;33.15;15.07;;;3.80;92.90;;;;;;2080872;28;20026;-81
2021/01/03 03:33:30;;;;;;;29.27;14.15;;;3.80;92.90;;;;;;2080944;28;20040;-81
2021/01/03 03:34:31;;;;;;;31.02;13.98;;;3.80;92.90;;;;;;2081582;28;20024;-81
2021/01/03 03:35:37;;;;;;;37.30;15.57;;;3.80;93.20;;;;;;2080760;28;20423;-81
2021/01/03 03:36:38;;;;;;;32.63;14.80;;;3.80;92.90;;;;;;2081524;28;20030;-81
2021/01/03 03:37:39;;;;;;;32.65;14.60;;;3.80;92.90;;;;;;2088879;28;20029;-81
2021/01/03 03:38:40;;;;;;;34.78;14.93;;;3.80;92.90;;;;;;2088906;28;20502;-82
2021/01/03 03:39:40;;;;;;;33.65;14.95;;;3.80;92.90;;;;;;2089010;28;20147;-81
2021/01/03 03:40:41;;;;;;;30.00;13.35;;;3.80;92.90;;;;;;2080829;28;20483;-81
2021/01/03 03:41:42;;;;;;;32.08;13.75;;;3.80;92.90;;;;;;2080925;28;20518;-81
2021/01/03 03:42:43;;;;;;;32.10;14.35;;;3.80;92.90;;;;;;2081443;28;20491;-81
2021/01/03 03:43:43;;;;;;;32.80;15.07;;;3.80;92.90;;;;;;2097198;28;20033;-81
2021/01/03 03:44:44;;;;;;;31.85;14.93;;;3.80;92.90;;;;;;2097225;28;20493;-81
2021/01/03 03:45:44;;;;;;;33.03;14.70;;;3.90;92.90;;;;;;2081374;28;20475;-81
2021/01/03 03:47:02;;;;;;;40.47;17.30;;;3.80;92.90;;;;;;2089030;28;20025;-81
2021/01/03 03:48:03;;;;;;;37.15;16.00;;;3.80;92.90;;;;;;2080381;28;20091;-81
2021/01/03 03:49:04;;;;;;;32.60;14.73;;;3.80;92.90;;;;;;2072632;28;20026;-81
2021/01/03 03:50:08;;;;;;;32.08;15.20;;;3.80;92.90;;;;;;2080698;28;20459;-82
2021/01/03 03:51:13;;;;;;;32.00;15.25;;;3.80;92.90;;;;;;2088717;28;20063;-81
2021/01/03 03:52:14;;;;;;;33.83;14.90;;;3.80;92.90;;;;;;2081329;28;20022;-81
2021/01/03 03:53:14;;;;;;;34.22;15.02;;;3.80;92.90;;;;;;2081367;28;20361;-81
2021/01/03 03:54:15;;;;;;;37.15;15.27;;;3.90;92.90;;;;;;2097205;28;20036;-81
2021/01/03 03:55:17;;;;;;;34.47;14.63;;;3.80;92.90;;;;;;2088931;28;20028;-81
2021/01/03 03:56:18;;;;;;;34.65;14.80;;;3.80;92.90;;;;;;2080782;28;20034;-81
2021/01/03 03:57:19;;;;;;;34.33;15.45;;;3.80;92.90;;;;;;2088771;28;20029;-81
2021/01/03 03:58:19;;;;;;;35.30;15.05;;;3.80;92.90;;;;;;2088846;28;20031;-81
2021/01/03 03:59:21;;;;;;;32.55;14.93;;;3.90;92.90;;;;;;2080717;28;20125;-81
2021/01/03 04:00:23;;;;;;;36.38;16.25;;;3.80;92.90;;;;;;2080512;28;20029;-81
2021/01/03 04:01:24;;;;;;;36.55;16.50;;;3.90;92.90;;;;;;2088868;28;20032;-81
2021/01/03 04:02:24;;;;;;;40.97;17.38;;;3.90;92.90;;;;;;2088789;28;20025;-81
2021/01/03 04:03:25;;;;;;;33.60;15.73;;;3.80;92.80;;;;;;2081345;28;20041;-81
2021/01/03 04:04:26;;;;;;;36.70;15.65;;;3.80;92.80;;;;;;2097069;28;20219;-81
2021/01/03 04:05:26;;;;;;;38.78;15.73;;;3.80;92.80;;;;;;2097208;28;20029;-81
2021/01/03 04:06:27;;;;;;;34.35;15.43;;;3.80;92.90;;;;;;2081319;28;20061;-81
2021/01/03 04:07:28;;;;;;;38.65;16.35;;;3.80;92.90;;;;;;2097183;28;20086;-82
2021/01/03 04:08:28;;;;;;;38.55;17.88;;;3.80;92.90;;;;;;2097054;28;20184;-81
2021/01/03 04:09:29;;;;;;;37.10;16.48;;;3.80;92.90;;;;;;2088710;28;20361;-80
2021/01/03 04:10:30;;;;;;;42.80;17.38;;;3.90;92.90;;;;;;2088957;28;20132;-80
2021/01/03 04:11:32;;;;;;;44.33;18.25;;;3.80;92.90;;;;;;2081295;28;20022;-80
2021/01/03 04:12:33;;;;;;;39.53;17.55;;;3.80;92.90;;;;;;2081312;28;20198;-80
2021/01/03 04:13:33;;;;;;;42.40;18.23;;;3.80;92.90;;;;;;2080443;28;20402;-80
2021/01/03 04:14:34;;;;;;;42.50;17.52;;;3.80;92.90;;;;;;2080576;28;20085;-80
2021/01/03 04:15:35;;;;;;;40.28;17.80;;;3.80;92.90;;;;;;2072495;28;20132;-80
2021/01/03 04:16:36;;;;;;;39.60;17.17;;;3.80;92.90;;;;;;2080587;28;20543;-81
2021/01/03 04:17:37;;;;;;;40.97;17.23;;;3.80;92.90;;;;;;2097116;28;20021;-80
2021/01/03 04:18:37;;;;;;;37.47;17.05;;;3.80;92.90;;;;;;2104636;28;20161;-81
2021/01/03 04:19:38;;;;;;;37.55;16.83;;;3.80;92.90;;;;;;2105378;28;20339;-81
2021/01/03 04:20:39;;;;;;;43.60;18.17;;;3.80;92.90;;;;;;2097081;28;20052;-81
2021/01/03 04:21:40;;;;;;;43.78;20.08;;;3.80;92.90;;;;;;2097208;28;20029;-80
2021/01/03 04:22:41;;;;;;;41.58;17.70;;;3.80;92.90;;;;;;2096788;28;20040;-80
2021/01/03 04:23:42;;;;;;;43.30;18.63;;;3.80;92.90;;;;;;2080546;28;20022;-80
2021/01/03 04:24:42;;;;;;;46.35;18.58;;;3.80;92.90;;;;;;2072272;28;20553;-81
2021/01/03 04:25:43;;;;;;;45.97;19.85;;;3.80;93.20;;;;;;2088830;28;20510;-80
2021/01/03 04:26:49;;;;;;;48.47;19.42;;;3.80;92.90;;;;;;2080430;28;20029;-80
2021/01/03 04:27:53;;;;;;;47.65;19.67;;;3.80;92.90;;;;;;2074604;28;20054;-80
2021/01/03 04:28:53;;;;;;;47.10;18.88;;;3.80;92.90;;;;;;2088722;28;20036;-81
2021/01/03 04:29:54;;;;;;;46.95;19.95;;;3.80;92.90;;;;;;2080407;28;20053;-80
2021/01/03 04:30:55;;;;;;;39.80;18.50;;;3.70;92.90;;;;;;2097169;28;20032;-80
2021/01/03 04:31:58;;;;;;;41.22;17.88;;;3.70;92.90;;;;;;2105490;28;20021;-80
2021/01/03 04:32:59;;;;;;;42.10;18.27;;;3.70;92.90;;;;;;2089456;28;20021;-80
2021/01/03 04:33:59;;;;;;;45.60;19.17;;;3.70;92.90;;;;;;2088633;28;20013;-80
2021/01/03 04:35:00;;;;;;;46.42;19.13;;;3.70;92.90;;;;;;2088720;28;20479;-80
2021/01/03 04:36:01;;;;;;;43.00;19.20;;;3.70;92.90;;;;;;2097138;28;20029;-80
2021/01/03 04:37:02;;;;;;;44.33;18.75;;;3.70;92.90;;;;;;2080682;28;20129;-80
2021/01/03 04:38:03;;;;;;;42.90;18.77;;;3.70;93.00;;;;;;2088840;28;20399;-80
2021/01/03 04:39:05;;;;;;;47.72;18.67;;;3.70;93.00;;;;;;2088624;28;20065;-80
2021/01/03 04:40:14;;;;;;;46.05;19.52;;;3.80;93.00;;;;;;2080298;28;20589;-81
2021/01/03 04:41:25;;;;;;;44.60;19.05;;;3.70;93.00;;;;;;2088803;28;20507;-80
2021/01/03 04:42:31;;;;;;;44.45;18.10;;;3.70;93.00;;;;;;2088789;28;20021;-81
2021/01/03 04:43:32;;;;;;;41.83;16.80;;;3.70;92.90;;;;;;2088750;28;20021;-81
2021/01/03 04:44:50;;;;;;;47.53;18.15;;;3.70;92.90;;;;;;2080467;28;20483;-80
2021/01/03 04:46:05;;;;;;;46.65;18.38;;;3.80;93.00;;;;;;2088914;28;20041;-79
2021/01/03 04:47:13;;;;;;;51.55;20.15;;;3.70;92.90;;;;;;2105445;28;20497;-80
2021/01/03 04:48:29;;;;;;;46.92;19.60;;;3.80;92.90;;;;;;2095829;28;20030;-80
2021/01/03 04:49:40;;;;;;;44.42;18.63;;;3.70;92.90;;;;;;2088920;28;20120;-80
2021/01/03 04:51:02;;;;;;;47.85;19.92;;;3.70;92.90;;;;;;2089272;28;20372;-80
2021/01/03 04:52:31;;;;;;;47.58;19.13;;;3.70;92.90;;;;;;2089278;28;20017;-80
2021/01/03 04:53:34;;;;;;;41.47;17.75;;;3.70;92.90;;;;;;2088754;28;20036;-80
2021/01/03 04:54:38;;;;;;;41.20;17.25;;;3.70;92.90;;;;;;2088750;28;20052;-80
2021/01/03 04:55:47;;;;;;;38.78;17.50;;;3.70;92.90;;;;;;2105403;28;20032;-80
2021/01/03 04:56:56;;;;;;;40.67;18.25;;;3.70;92.90;;;;;;2095914;28;20386;-80
2021/01/03 04:58:14;;;;;;;38.88;16.88;;;3.70;92.90;;;;;;2088686;28;20454;-80
2021/01/03 04:59:24;;;;;;;43.03;17.73;;;3.80;92.90;;;;;;2088706;28;20527;-80
2021/01/03 05:00:32;;;;;;;41.42;17.13;;;3.80;92.90;;;;;;2088600;28;20049;-81
2021/01/03 05:01:38;;;;;;;41.15;17.58;;;3.70;92.90;;;;;;2089685;28;20021;-80
2021/01/03 05:03:18;;;;;;;39.75;17.85;;;3.70;92.90;;;;;;2088623;28;20025;-80
2021/01/03 05:04:45;;;;;;;43.60;16.98;;;3.70;92.90;;;;;;2089115;28;20159;-80
2021/01/03 05:05:49;;;;;;;37.63;16.05;;;3.70;92.90;;;;;;2088557;28;20029;-80
2021/01/03 05:06:52;;;;;;;41.70;16.80;;;3.70;92.90;;;;;;2080887;28;20029;-80
2021/01/03 05:08:14;;;;;;;38.65;16.30;;;3.70;92.90;;;;;;2088753;28;20183;-80
2021/01/03 05:09:15;;;;;;;43.70;17.15;;;3.80;92.90;;;;;;2088549;28;20029;-80
2021/01/03 05:10:20;;;;;;;44.33;17.80;;;3.80;92.90;;;;;;2080418;28;20034;-80
2021/01/03 05:11:26;;;;;;;51.03;20.98;;;3.70;92.90;;;;;;2088605;28;20022;-80
2021/01/03 05:12:39;;;;;;;51.28;21.55;;;3.80;92.90;;;;;;2089346;28;20021;-80
2021/01/03 05:13:42;;;;;;;40.30;18.60;;;3.80;92.90;;;;;;2088697;28;20036;-80
2021/01/03 05:14:53;;;;;;;46.58;19.58;;;3.70;92.80;;;;;;2080587;28;20042;-80
2021/01/03 05:15:54;;;;;;;50.88;21.40;;;3.70;92.80;;;;;;2088686;28;20445;-81
2021/01/03 05:16:56;;;;;;;50.95;21.25;;;3.70;92.80;;;;;;2089274;28;20043;-80
2021/01/03 05:17:57;;;;;;;48.25;21.00;;;3.70;92.80;;;;;;2089931;28;20021;-80
2021/01/03 05:18:57;;;;;;;45.50;20.67;;;3.70;92.80;;;;;;2090810;28;20036;-80
2021/01/03 05:19:58;;;;;;;44.33;19.77;;;3.70;92.90;;;;;;2106629;28;20404;-80
2021/01/03 05:21:06;;;;;;;48.63;20.23;;;3.70;92.90;;;;;;2106703;28;20032;-80
2021/01/03 05:22:06;;;;;;;40.70;19.27;;;3.70;92.90;;;;;;2089847;28;20029;-80
2021/01/03 05:23:16;;;;;;;42.33;18.70;;;3.70;93.20;;;;;;2090949;28;20057;-80
2021/01/03 05:24:17;;;;;;;42.60;17.55;;;3.80;92.90;;;;;;2090165;28;20021;-80
2021/01/03 05:25:20;;;;;;;38.58;18.17;;;3.80;92.90;;;;;;2081928;28;20033;-81
2021/01/03 05:26:33;;;;;;;47.17;18.92;;;3.80;93.00;;;;;;2090074;28;20021;-81
2021/01/03 05:27:34;;;;;;;43.95;19.27;;;3.80;92.90;;;;;;2090121;28;20013;-81